sensor_id;sensor_type;location;lat;lon;timestamp;temperature;humidity
29731;DHT22;16639;51.488;0.152;2024-01-15T00:01:32;4.70;99.90
29731;DHT22;16639;51.488;0.152;2024-01-15T00:04:00;4.70;99.90
29731;DHT22;16639;51.488;0.152;2024-01-15T00:06:28;4.60;99.90
29731;DHT22;16639;51.488;0.152;2024-01-15T00:08:56;4.60;99.90
29731;DHT22;16639;51.488;0.152;2024-01-15T00:11:25;4.60;99.90
29731;DHT22;16639;51.488;0.152;2024-01-15T00:13:55;4.60;99.90
29731;DHT22;16639;51.488;0.152;2024-01-15T00:16:23;4.50;99.90
29731;DHT22;16639;51.488;0.152;2024-01-15T00:18:51;4.50;99.90
29731;DHT22;16639;51.488;0.152;2024-01-15T00:21:18;4.50;99.90
29731;DHT22;16639;51.488;0.152;2024-01-15T00:23:46;4.40;99.90
29731;DHT22;16639;51.488;0.152;2024-01-15T00:26:13;4.50;99.90
29731;DHT22;16639;51.488;0.152;2024-01-15T00:28:41;4.40;99.90
29731;DHT22;16639;51.488;0.152;2024-01-15T00:31:08;4.40;99.90
29731;DHT22;16639;51.488;0.152;2024-01-15T00:33:36;5.00;99.90
29731;DHT22;16639;51.488;0.152;2024-01-15T00:36:04;4.30;99.90
29731;DHT22;16639;51.488;0.152;2024-01-15T00:38:32;4.30;99.90
29731;DHT22;16639;51.488;0.152;2024-01-15T00:41:00;4.30;99.90
29731;DHT22;16639;51.488;0.152;2024-01-15T00:43:28;4.30;99.90
29731;DHT22;16639;51.488;0.152;2024-01-15T00:45:55;4.30;99.90
29731;DHT22;16639;51.488;0.152;2024-01-15T00:48:23;4.30;99.90
29731;DHT22;16639;51.488;0.152;2024-01-15T00:50:51;4.20;99.90
29731;DHT22;16639;51.488;0.152;2024-01-15T00:53:18;4.20;99.90
29731;DHT22;16639;51.488;0.152;2024-01-15T00:55:47;4.20;99.90
29731;DHT22;16639;51.488;0.152;2024-01-15T00:58:15;4.10;99.90
29731;DHT22;16639;51.488;0.152;2024-01-15T01:00:44;4.10;99.90
29731;DHT22;16639;51.488;0.152;2024-01-15T01:03:12;4.20;99.90
29731;DHT22;16639;51.488;0.152;2024-01-15T01:05:39;4.20;99.90
29731;DHT22;16639;51.488;0.152;2024-01-15T01:08:07;3.40;99.90
29731;DHT22;16639;51.488;0.152;2024-01-15T01:10:34;4.00;99.90
29731;DHT22;16639;51.488;0.152;2024-01-15T01:13:03;4.10;99.90
29731;DHT22;16639;51.488;0.152;2024-01-15T01:15:30;4.10;99.90
29731;DHT22;16639;51.488;0.152;2024-01-15T01:17:58;4.00;99.90
29731;DHT22;16639;51.488;0.152;2024-01-15T01:20:26;4.20;99.90
29731;DHT22;16639;51.488;0.152;2024-01-15T01:22:54;4.00;99.90
29731;DHT22;16639;51.488;0.152;2024-01-15T01:25:21;4.00;99.90
29731;DHT22;16639;51.488;0.152;2024-01-15T01:27:48;4.00;99.90
29731;DHT22;16639;51.488;0.152;2024-01-15T01:30:16;3.90;99.90
29731;DHT22;16639;51.488;0.152;2024-01-15T01:32:43;3.90;99.90
29731;DHT22;16639;51.488;0.152;2024-01-15T01:35:12;4.10;99.90
29731;DHT22;16639;51.488;0.152;2024-01-15T01:37:40;3.90;99.90
29731;DHT22;16639;51.488;0.152;2024-01-15T01:40:08;3.90;99.90
29731;DHT22;16639;51.488;0.152;2024-01-15T01:42:35;3.90;99.90
29731;DHT22;16639;51.488;0.152;2024-01-15T01:45:03;3.90;99.90
29731;DHT22;16639;51.488;0.152;2024-01-15T01:47:31;3.90;99.90
29731;DHT22;16639;51.488;0.152;2024-01-15T01:49:59;3.80;99.90
29731;DHT22;16639;51.488;0.152;2024-01-15T01:52:28;3.90;99.90
29731;DHT22;16639;51.488;0.152;2024-01-15T01:54:56;3.90;99.90
29731;DHT22;16639;51.488;0.152;2024-01-15T01:57:24;3.90;99.90
29731;DHT22;16639;51.488;0.152;2024-01-15T01:59:51;3.90;99.90
29731;DHT22;16639;51.488;0.152;2024-01-15T02:02:21;3.80;99.90
29731;DHT22;16639;51.488;0.152;2024-01-15T02:04:49;4.00;99.90
29731;DHT22;16639;51.488;0.152;2024-01-15T02:07:18;4.00;99.90
29731;DHT22;16639;51.488;0.152;2024-01-15T02:09:46;3.70;99.90
29731;DHT22;16639;51.488;0.152;2024-01-15T02:12:13;3.70;99.90
29731;DHT22;16639;51.488;0.152;2024-01-15T02:14:41;3.70;99.90
29731;DHT22;16639;51.488;0.152;2024-01-15T02:17:08;3.60;99.90
29731;DHT22;16639;51.488;0.152;2024-01-15T02:19:36;4.80;99.90
29731;DHT22;16639;51.488;0.152;2024-01-15T02:22:04;3.60;99.90
29731;DHT22;16639;51.488;0.152;2024-01-15T02:24:31;3.70;99.90
29731;DHT22;16639;51.488;0.152;2024-01-15T02:26:59;3.70;99.90
29731;DHT22;16639;51.488;0.152;2024-01-15T02:29:27;3.70;99.90
29731;DHT22;16639;51.488;0.152;2024-01-15T02:31:55;3.60;99.90
29731;DHT22;16639;51.488;0.152;2024-01-15T02:34:22;3.70;99.90
29731;DHT22;16639;51.488;0.152;2024-01-15T02:36:50;3.60;99.90
29731;DHT22;16639;51.488;0.152;2024-01-15T02:39:18;3.60;99.90
29731;DHT22;16639;51.488;0.152;2024-01-15T02:41:45;3.60;99.90
29731;DHT22;16639;51.488;0.152;2024-01-15T02:44:12;3.60;99.90
29731;DHT22;16639;51.488;0.152;2024-01-15T02:46:40;3.50;99.90
29731;DHT22;16639;51.488;0.152;2024-01-15T02:49:07;3.50;99.90
29731;DHT22;16639;51.488;0.152;2024-01-15T02:51:35;4.30;99.90
29731;DHT22;16639;51.488;0.152;2024-01-15T02:54:03;3.40;99.90
29731;DHT22;16639;51.488;0.152;2024-01-15T02:56:30;3.50;99.90
29731;DHT22;16639;51.488;0.152;2024-01-15T02:58:58;3.40;99.90
29731;DHT22;16639;51.488;0.152;2024-01-15T03:01:25;3.40;99.90
29731;DHT22;16639;51.488;0.152;2024-01-15T03:03:52;3.40;99.90
29731;DHT22;16639;51.488;0.152;2024-01-15T03:06:22;3.40;99.90
29731;DHT22;16639;51.488;0.152;2024-01-15T03:08:49;3.50;99.90
29731;DHT22;16639;51.488;0.152;2024-01-15T03:11:17;3.50;99.90
29731;DHT22;16639;51.488;0.152;2024-01-15T03:13:44;3.40;99.90
29731;DHT22;16639;51.488;0.152;2024-01-15T03:16:12;3.40;99.90
29731;DHT22;16639;51.488;0.152;2024-01-15T03:18:39;3.40;99.90
29731;DHT22;16639;51.488;0.152;2024-01-15T03:21:07;3.40;99.90
29731;DHT22;16639;51.488;0.152;2024-01-15T03:23:34;2.70;99.90
29731;DHT22;16639;51.488;0.152;2024-01-15T03:26:02;3.30;99.90
29731;DHT22;16639;51.488;0.152;2024-01-15T03:28:30;3.30;99.90
29731;DHT22;16639;51.488;0.152;2024-01-15T03:30:57;3.30;99.90
29731;DHT22;16639;51.488;0.152;2024-01-15T03:33:25;3.30;99.90
29731;DHT22;16639;51.488;0.152;2024-01-15T03:35:53;3.30;99.90
29731;DHT22;16639;51.488;0.152;2024-01-15T03:38:21;3.30;99.90
29731;DHT22;16639;51.488;0.152;2024-01-15T03:40:48;3.30;99.90
29731;DHT22;16639;51.488;0.152;2024-01-15T03:43:15;5.50;99.90
29731;DHT22;16639;51.488;0.152;2024-01-15T03:45:43;3.30;99.90
29731;DHT22;16639;51.488;0.152;2024-01-15T03:48:11;3.20;99.90
29731;DHT22;16639;51.488;0.152;2024-01-15T03:50:39;3.20;99.90
29731;DHT22;16639;51.488;0.152;2024-01-15T03:53:06;2.60;99.90
29731;DHT22;16639;51.488;0.152;2024-01-15T03:55:34;3.30;99.90
29731;DHT22;16639;51.488;0.152;2024-01-15T03:58:01;3.20;99.90
29731;DHT22;16639;51.488;0.152;2024-01-15T04:00:29;3.20;99.90
29731;DHT22;16639;51.488;0.152;2024-01-15T04:02:56;3.20;99.90
29731;DHT22;16639;51.488;0.152;2024-01-15T04:05:24;3.30;99.90
29731;DHT22;16639;51.488;0.152;2024-01-15T04:07:51;3.20;99.90
29731;DHT22;16639;51.488;0.152;2024-01-15T04:10:19;3.20;99.90
29731;DHT22;16639;51.488;0.152;2024-01-15T04:12:46;3.20;99.90
29731;DHT22;16639;51.488;0.152;2024-01-15T04:15:14;3.20;99.90
29731;DHT22;16639;51.488;0.152;2024-01-15T04:17:44;3.10;99.90
29731;DHT22;16639;51.488;0.152;2024-01-15T04:20:11;3.10;99.90
29731;DHT22;16639;51.488;0.152;2024-01-15T04:22:39;3.10;99.90
29731;DHT22;16639;51.488;0.152;2024-01-15T04:25:07;3.10;99.90
29731;DHT22;16639;51.488;0.152;2024-01-15T04:27:34;3.10;99.90
29731;DHT22;16639;51.488;0.152;2024-01-15T04:30:02;3.10;99.90
29731;DHT22;16639;51.488;0.152;2024-01-15T04:32:29;3.10;99.90
29731;DHT22;16639;51.488;0.152;2024-01-15T04:34:57;3.10;99.90
29731;DHT22;16639;51.488;0.152;2024-01-15T04:37:24;3.10;99.90
29731;DHT22;16639;51.488;0.152;2024-01-15T04:39:51;3.00;99.90
29731;DHT22;16639;51.488;0.152;2024-01-15T04:42:23;3.10;99.90
29731;DHT22;16639;51.488;0.152;2024-01-15T04:44:51;3.10;99.90
29731;DHT22;16639;51.488;0.152;2024-01-15T04:47:18;3.10;99.90
29731;DHT22;16639;51.488;0.152;2024-01-15T04:49:46;3.10;99.90
29731;DHT22;16639;51.488;0.152;2024-01-15T04:52:13;3.00;99.90
29731;DHT22;16639;51.488;0.152;2024-01-15T04:54:41;0.20;99.90
29731;DHT22;16639;51.488;0.152;2024-01-15T04:57:09;3.10;99.90
29731;DHT22;16639;51.488;0.152;2024-01-15T04:59:36;3.00;99.90
29731;DHT22;16639;51.488;0.152;2024-01-15T05:02:04;3.10;99.90
29731;DHT22;16639;51.488;0.152;2024-01-15T05:04:31;3.00;99.90
29731;DHT22;16639;51.488;0.152;2024-01-15T05:07:00;2.90;99.90
29731;DHT22;16639;51.488;0.152;2024-01-15T05:09:28;3.10;99.90
29731;DHT22;16639;51.488;0.152;2024-01-15T05:11:59;2.90;99.90
29731;DHT22;16639;51.488;0.152;2024-01-15T05:14:27;2.90;99.90
29731;DHT22;16639;51.488;0.152;2024-01-15T05:16:54;2.50;99.90
29731;DHT22;16639;51.488;0.152;2024-01-15T05:19:21;2.90;99.90
29731;DHT22;16639;51.488;0.152;2024-01-15T05:21:49;2.90;99.90
29731;DHT22;16639;51.488;0.152;2024-01-15T05:24:17;1.80;99.90
29731;DHT22;16639;51.488;0.152;2024-01-15T05:26:45;2.80;99.90
29731;DHT22;16639;51.488;0.152;2024-01-15T05:29:12;2.80;99.90
29731;DHT22;16639;51.488;0.152;2024-01-15T05:31:40;2.80;99.90
29731;DHT22;16639;51.488;0.152;2024-01-15T05:34:07;2.80;99.90
29731;DHT22;16639;51.488;0.152;2024-01-15T05:36:35;2.80;99.90
29731;DHT22;16639;51.488;0.152;2024-01-15T05:39:03;2.80;99.90
29731;DHT22;16639;51.488;0.152;2024-01-15T05:41:31;2.80;99.90
29731;DHT22;16639;51.488;0.152;2024-01-15T05:43:58;2.80;99.90
29731;DHT22;16639;51.488;0.152;2024-01-15T05:46:25;2.70;99.90
29731;DHT22;16639;51.488;0.152;2024-01-15T05:48:53;2.80;99.90
29731;DHT22;16639;51.488;0.152;2024-01-15T05:51:21;2.70;99.90
29731;DHT22;16639;51.488;0.152;2024-01-15T05:53:48;2.70;99.90
29731;DHT22;16639;51.488;0.152;2024-01-15T05:56:18;2.70;99.90
29731;DHT22;16639;51.488;0.152;2024-01-15T05:58:46;2.70;99.90
29731;DHT22;16639;51.488;0.152;2024-01-15T06:01:13;2.60;99.90
29731;DHT22;16639;51.488;0.152;2024-01-15T06:03:41;2.70;99.90
29731;DHT22;16639;51.488;0.152;2024-01-15T06:06:09;2.70;99.90
29731;DHT22;16639;51.488;0.152;2024-01-15T06:08:37;2.60;99.90
29731;DHT22;16639;51.488;0.152;2024-01-15T06:11:06;2.60;99.90
29731;DHT22;16639;51.488;0.152;2024-01-15T06:13:34;2.60;99.90
29731;DHT22;16639;51.488;0.152;2024-01-15T06:16:02;2.60;99.90
29731;DHT22;16639;51.488;0.152;2024-01-15T06:18:33;2.60;99.90
29731;DHT22;16639;51.488;0.152;2024-01-15T06:21:01;2.60;99.90
29731;DHT22;16639;51.488;0.152;2024-01-15T06:23:28;2.60;99.90
29731;DHT22;16639;51.488;0.152;2024-01-15T06:25:56;2.60;99.90
29731;DHT22;16639;51.488;0.152;2024-01-15T06:28:23;2.50;99.90
29731;DHT22;16639;51.488;0.152;2024-01-15T06:30:50;2.50;99.90
29731;DHT22;16639;51.488;0.152;2024-01-15T06:33:18;2.50;99.90
29731;DHT22;16639;51.488;0.152;2024-01-15T06:35:46;3.40;99.90
29731;DHT22;16639;51.488;0.152;2024-01-15T06:38:14;2.80;99.90
29731;DHT22;16639;51.488;0.152;2024-01-15T06:40:41;2.50;99.90
29731;DHT22;16639;51.488;0.152;2024-01-15T06:43:15;2.50;99.90
29731;DHT22;16639;51.488;0.152;2024-01-15T06:45:45;2.50;99.90
29731;DHT22;16639;51.488;0.152;2024-01-15T06:48:13;2.50;99.90
29731;DHT22;16639;51.488;0.152;2024-01-15T06:50:44;2.50;99.90
29731;DHT22;16639;51.488;0.152;2024-01-15T06:53:11;2.50;99.90
29731;DHT22;16639;51.488;0.152;2024-01-15T06:55:39;2.50;99.90
29731;DHT22;16639;51.488;0.152;2024-01-15T06:58:06;2.50;99.90
29731;DHT22;16639;51.488;0.152;2024-01-15T07:00:34;2.50;99.90
29731;DHT22;16639;51.488;0.152;2024-01-15T07:03:02;2.80;99.90
29731;DHT22;16639;51.488;0.152;2024-01-15T07:05:30;2.50;99.90
29731;DHT22;16639;51.488;0.152;2024-01-15T07:07:58;2.80;99.90
29731;DHT22;16639;51.488;0.152;2024-01-15T07:10:25;2.60;99.90
29731;DHT22;16639;51.488;0.152;2024-01-15T07:12:53;2.40;99.90
29731;DHT22;16639;51.488;0.152;2024-01-15T07:15:21;2.40;99.90
29731;DHT22;16639;51.488;0.152;2024-01-15T07:17:49;2.40;99.90
29731;DHT22;16639;51.488;0.152;2024-01-15T07:20:16;2.40;99.90
29731;DHT22;16639;51.488;0.152;2024-01-15T07:22:46;3.00;99.90
29731;DHT22;16639;51.488;0.152;2024-01-15T07:25:15;1.40;99.90
29731;DHT22;16639;51.488;0.152;2024-01-15T07:27:42;2.90;99.90
29731;DHT22;16639;51.488;0.152;2024-01-15T07:30:12;2.30;99.90
29731;DHT22;16639;51.488;0.152;2024-01-15T07:32:40;2.30;99.90
29731;DHT22;16639;51.488;0.152;2024-01-15T07:35:08;2.30;99.90
29731;DHT22;16639;51.488;0.152;2024-01-15T07:37:35;2.50;99.90
29731;DHT22;16639;51.488;0.152;2024-01-15T07:40:03;2.30;99.90
29731;DHT22;16639;51.488;0.152;2024-01-15T07:42:32;2.40;99.90
29731;DHT22;16639;51.488;0.152;2024-01-15T07:44:59;2.40;99.90
29731;DHT22;16639;51.488;0.152;2024-01-15T07:47:27;2.00;99.90
29731;DHT22;16639;51.488;0.152;2024-01-15T07:49:55;2.50;99.90
29731;DHT22;16639;51.488;0.152;2024-01-15T07:52:26;2.60;99.90
29731;DHT22;16639;51.488;0.152;2024-01-15T07:54:53;2.70;99.90
29731;DHT22;16639;51.488;0.152;2024-01-15T07:57:22;2.80;99.90
29731;DHT22;16639;51.488;0.152;2024-01-15T07:59:50;2.60;99.90
29731;DHT22;16639;51.488;0.152;2024-01-15T08:02:18;2.70;99.90
29731;DHT22;16639;51.488;0.152;2024-01-15T08:04:47;2.70;99.90
29731;DHT22;16639;51.488;0.152;2024-01-15T08:07:15;3.90;99.90
29731;DHT22;16639;51.488;0.152;2024-01-15T08:09:43;2.70;99.90
29731;DHT22;16639;51.488;0.152;2024-01-15T08:12:10;2.70;99.90
29731;DHT22;16639;51.488;0.152;2024-01-15T08:14:40;2.80;99.90
29731;DHT22;16639;51.488;0.152;2024-01-15T08:17:07;2.80;99.90
29731;DHT22;16639;51.488;0.152;2024-01-15T08:19:35;2.80;99.90
29731;DHT22;16639;51.488;0.152;2024-01-15T08:22:03;2.60;99.90
29731;DHT22;16639;51.488;0.152;2024-01-15T08:24:33;2.80;99.90
29731;DHT22;16639;51.488;0.152;2024-01-15T08:27:03;2.70;99.90
29731;DHT22;16639;51.488;0.152;2024-01-15T08:29:32;2.70;99.90
29731;DHT22;16639;51.488;0.152;2024-01-15T08:32:00;2.30;99.90
29731;DHT22;16639;51.488;0.152;2024-01-15T08:34:28;2.80;99.90
29731;DHT22;16639;51.488;0.152;2024-01-15T08:36:58;2.70;99.90
29731;DHT22;16639;51.488;0.152;2024-01-15T08:39:28;2.70;99.90
29731;DHT22;16639;51.488;0.152;2024-01-15T08:41:55;4.10;99.90
29731;DHT22;16639;51.488;0.152;2024-01-15T08:44:22;2.70;99.90
29731;DHT22;16639;51.488;0.152;2024-01-15T08:46:50;2.70;99.90
29731;DHT22;16639;51.488;0.152;2024-01-15T08:49:17;3.50;99.90
29731;DHT22;16639;51.488;0.152;2024-01-15T08:51:45;2.90;99.90
29731;DHT22;16639;51.488;0.152;2024-01-15T08:54:13;2.60;99.90
29731;DHT22;16639;51.488;0.152;2024-01-15T08:56:40;2.60;99.90
29731;DHT22;16639;51.488;0.152;2024-01-15T08:59:07;2.60;99.90
29731;DHT22;16639;51.488;0.152;2024-01-15T09:01:35;2.60;99.90
29731;DHT22;16639;51.488;0.152;2024-01-15T09:04:02;2.50;99.90
29731;DHT22;16639;51.488;0.152;2024-01-15T09:06:30;2.50;99.90
29731;DHT22;16639;51.488;0.152;2024-01-15T09:08:58;2.50;99.90
29731;DHT22;16639;51.488;0.152;2024-01-15T09:11:25;2.50;99.90
29731;DHT22;16639;51.488;0.152;2024-01-15T09:13:53;3.10;99.90
29731;DHT22;16639;51.488;0.152;2024-01-15T09:16:20;2.50;99.90
29731;DHT22;16639;51.488;0.152;2024-01-15T09:18:48;2.40;99.90
29731;DHT22;16639;51.488;0.152;2024-01-15T09:21:16;2.50;99.90
29731;DHT22;16639;51.488;0.152;2024-01-15T09:23:43;2.50;99.90
29731;DHT22;16639;51.488;0.152;2024-01-15T09:26:11;2.20;99.90
29731;DHT22;16639;51.488;0.152;2024-01-15T09:28:38;2.50;99.90
29731;DHT22;16639;51.488;0.152;2024-01-15T09:31:06;2.40;99.90
29731;DHT22;16639;51.488;0.152;2024-01-15T09:33:33;2.40;99.90
29731;DHT22;16639;51.488;0.152;2024-01-15T09:36:02;2.40;99.90
29731;DHT22;16639;51.488;0.152;2024-01-15T09:38:31;2.40;99.90
29731;DHT22;16639;51.488;0.152;2024-01-15T09:40:59;2.40;99.90
29731;DHT22;16639;51.488;0.152;2024-01-15T09:43:26;2.40;99.90
29731;DHT22;16639;51.488;0.152;2024-01-15T09:45:54;2.50;99.90
29731;DHT22;16639;51.488;0.152;2024-01-15T09:48:22;2.40;99.90
29731;DHT22;16639;51.488;0.152;2024-01-15T09:50:50;2.50;99.90
29731;DHT22;16639;51.488;0.152;2024-01-15T09:53:18;2.50;99.90
29731;DHT22;16639;51.488;0.152;2024-01-15T09:55:49;2.50;99.90
29731;DHT22;16639;51.488;0.152;2024-01-15T09:58:24;2.50;99.90
29731;DHT22;16639;51.488;0.152;2024-01-15T10:00:53;3.40;99.90
29731;DHT22;16639;51.488;0.152;2024-01-15T10:03:21;2.50;99.90
29731;DHT22;16639;51.488;0.152;2024-01-15T10:05:49;2.50;99.90
29731;DHT22;16639;51.488;0.152;2024-01-15T10:08:16;2.60;99.90
29731;DHT22;16639;51.488;0.152;2024-01-15T10:10:45;2.50;99.90
29731;DHT22;16639;51.488;0.152;2024-01-15T10:13:17;3.00;99.90
29731;DHT22;16639;51.488;0.152;2024-01-15T10:15:47;2.20;99.90
29731;DHT22;16639;51.488;0.152;2024-01-15T10:18:15;2.50;99.90
29731;DHT22;16639;51.488;0.152;2024-01-15T10:20:43;2.50;99.90
29731;DHT22;16639;51.488;0.152;2024-01-15T10:23:11;2.50;99.90
29731;DHT22;16639;51.488;0.152;2024-01-15T10:25:38;2.60;99.90
29731;DHT22;16639;51.488;0.152;2024-01-15T10:28:06;2.70;99.90
29731;DHT22;16639;51.488;0.152;2024-01-15T10:30:34;2.50;99.90
29731;DHT22;16639;51.488;0.152;2024-01-15T10:33:02;2.60;99.90
29731;DHT22;16639;51.488;0.152;2024-01-15T10:35:32;2.60;99.90
29731;DHT22;16639;51.488;0.152;2024-01-15T10:38:01;2.50;99.90
29731;DHT22;16639;51.488;0.152;2024-01-15T10:40:30;2.60;99.90
29731;DHT22;16639;51.488;0.152;2024-01-15T10:42:59;3.30;99.90
29731;DHT22;16639;51.488;0.152;2024-01-15T10:45:27;2.60;99.90
29731;DHT22;16639;51.488;0.152;2024-01-15T10:47:55;2.70;99.90
29731;DHT22;16639;51.488;0.152;2024-01-15T10:50:27;2.60;99.90
29731;DHT22;16639;51.488;0.152;2024-01-15T10:52:55;2.60;99.90
29731;DHT22;16639;51.488;0.152;2024-01-15T10:55:24;3.10;99.90
29731;DHT22;16639;51.488;0.152;2024-01-15T10:57:53;2.70;99.90
29731;DHT22;16639;51.488;0.152;2024-01-15T11:00:20;2.70;99.90
29731;DHT22;16639;51.488;0.152;2024-01-15T11:02:51;2.80;99.90
29731;DHT22;16639;51.488;0.152;2024-01-15T11:05:19;2.80;99.90
29731;DHT22;16639;51.488;0.152;2024-01-15T11:07:49;2.80;99.90
29731;DHT22;16639;51.488;0.152;2024-01-15T11:16:08;2.30;99.90
29731;DHT22;16639;51.488;0.152;2024-01-15T11:21:24;2.90;99.90
29731;DHT22;16639;51.488;0.152;2024-01-15T11:23:59;2.90;99.90
29731;DHT22;16639;51.488;0.152;2024-01-15T11:29:28;4.30;99.90
29731;DHT22;16639;51.488;0.152;2024-01-15T11:32:04;3.00;99.90
29731;DHT22;16639;51.488;0.152;2024-01-15T11:34:53;3.00;99.90
29731;DHT22;16639;51.488;0.152;2024-01-15T11:37:22;3.00;99.90
29731;DHT22;16639;51.488;0.152;2024-01-15T11:40:03;3.00;99.90
29731;DHT22;16639;51.488;0.152;2024-01-15T11:42:37;3.10;99.90
29731;DHT22;16639;51.488;0.152;2024-01-15T11:45:05;2.90;99.90
29731;DHT22;16639;51.488;0.152;2024-01-15T11:48:03;3.10;99.90
29731;DHT22;16639;51.488;0.152;2024-01-15T11:50:35;3.10;99.90
29731;DHT22;16639;51.488;0.152;2024-01-15T11:53:18;3.10;99.90
29731;DHT22;16639;51.488;0.152;2024-01-15T11:55:51;3.10;99.90
29731;DHT22;16639;51.488;0.152;2024-01-15T11:58:19;2.60;99.90
29731;DHT22;16639;51.488;0.152;2024-01-15T12:00:48;2.20;99.90
29731;DHT22;16639;51.488;0.152;2024-01-15T12:03:17;3.10;99.90
29731;DHT22;16639;51.488;0.152;2024-01-15T12:05:45;3.20;99.90
29731;DHT22;16639;51.488;0.152;2024-01-15T12:08:12;3.10;99.90
29731;DHT22;16639;51.488;0.152;2024-01-15T12:10:41;3.20;99.90
29731;DHT22;16639;51.488;0.152;2024-01-15T12:13:13;3.30;99.90
29731;DHT22;16639;51.488;0.152;2024-01-15T12:15:45;3.30;99.90
29731;DHT22;16639;51.488;0.152;2024-01-15T12:18:15;3.30;99.90
29731;DHT22;16639;51.488;0.152;2024-01-15T12:20:45;3.30;99.90
29731;DHT22;16639;51.488;0.152;2024-01-15T12:23:16;3.30;99.90
29731;DHT22;16639;51.488;0.152;2024-01-15T12:25:45;3.30;99.90
29731;DHT22;16639;51.488;0.152;2024-01-15T12:28:14;3.30;99.90
29731;DHT22;16639;51.488;0.152;2024-01-15T12:30:42;3.00;99.90
29731;DHT22;16639;51.488;0.152;2024-01-15T12:33:10;3.30;99.90
29731;DHT22;16639;51.488;0.152;2024-01-15T12:35:37;3.30;99.90
29731;DHT22;16639;51.488;0.152;2024-01-15T12:38:05;3.30;99.90
29731;DHT22;16639;51.488;0.152;2024-01-15T12:40:33;3.30;99.90
29731;DHT22;16639;51.488;0.152;2024-01-15T12:43:05;3.30;99.90
29731;DHT22;16639;51.488;0.152;2024-01-15T12:45:34;3.20;99.90
29731;DHT22;16639;51.488;0.152;2024-01-15T12:48:04;3.30;99.90
29731;DHT22;16639;51.488;0.152;2024-01-15T12:50:33;3.40;99.90
29731;DHT22;16639;51.488;0.152;2024-01-15T12:53:01;3.40;99.90
29731;DHT22;16639;51.488;0.152;2024-01-15T12:55:29;3.40;99.90
29731;DHT22;16639;51.488;0.152;2024-01-15T12:57:56;3.40;99.90
29731;DHT22;16639;51.488;0.152;2024-01-15T13:00:24;3.40;99.90
29731;DHT22;16639;51.488;0.152;2024-01-15T13:02:54;3.50;99.90
29731;DHT22;16639;51.488;0.152;2024-01-15T13:05:22;3.40;99.90
29731;DHT22;16639;51.488;0.152;2024-01-15T13:07:51;3.40;99.90
29731;DHT22;16639;51.488;0.152;2024-01-15T13:10:18;3.40;99.90
29731;DHT22;16639;51.488;0.152;2024-01-15T13:12:46;3.40;99.90
29731;DHT22;16639;51.488;0.152;2024-01-15T13:15:13;3.60;99.90
29731;DHT22;16639;51.488;0.152;2024-01-15T13:17:42;3.40;99.90
29731;DHT22;16639;51.488;0.152;2024-01-15T13:20:12;3.40;99.90
29731;DHT22;16639;51.488;0.152;2024-01-15T13:22:40;3.40;99.90
29731;DHT22;16639;51.488;0.152;2024-01-15T13:25:11;3.40;99.90
29731;DHT22;16639;51.488;0.152;2024-01-15T13:27:39;3.40;99.90
29731;DHT22;16639;51.488;0.152;2024-01-15T13:30:11;3.50;99.90
29731;DHT22;16639;51.488;0.152;2024-01-15T13:32:40;3.40;99.90
29731;DHT22;16639;51.488;0.152;2024-01-15T13:35:07;3.40;99.90
29731;DHT22;16639;51.488;0.152;2024-01-15T13:37:37;3.40;99.90
29731;DHT22;16639;51.488;0.152;2024-01-15T13:40:05;3.20;99.90
29731;DHT22;16639;51.488;0.152;2024-01-15T13:42:38;3.50;99.90
29731;DHT22;16639;51.488;0.152;2024-01-15T13:45:49;3.50;99.90
29731;DHT22;16639;51.488;0.152;2024-01-15T13:48:17;3.50;99.90
29731;DHT22;16639;51.488;0.152;2024-01-15T13:50:46;3.50;99.90
29731;DHT22;16639;51.488;0.152;2024-01-15T13:53:13;3.50;99.90
29731;DHT22;16639;51.488;0.152;2024-01-15T13:55:40;3.50;99.90
29731;DHT22;16639;51.488;0.152;2024-01-15T13:58:08;3.50;99.90
29731;DHT22;16639;51.488;0.152;2024-01-15T14:00:35;3.50;99.90
29731;DHT22;16639;51.488;0.152;2024-01-15T14:03:03;3.50;99.90
29731;DHT22;16639;51.488;0.152;2024-01-15T14:05:30;3.40;99.90
29731;DHT22;16639;51.488;0.152;2024-01-15T14:07:58;3.80;99.90
29731;DHT22;16639;51.488;0.152;2024-01-15T14:10:26;3.40;99.90
29731;DHT22;16639;51.488;0.152;2024-01-15T14:12:53;3.50;99.90
29731;DHT22;16639;51.488;0.152;2024-01-15T14:15:21;3.40;99.90
29731;DHT22;16639;51.488;0.152;2024-01-15T14:17:48;3.70;99.90
29731;DHT22;16639;51.488;0.152;2024-01-15T14:20:16;3.40;99.90
29731;DHT22;16639;51.488;0.152;2024-01-15T14:22:48;3.40;99.90
29731;DHT22;16639;51.488;0.152;2024-01-15T14:25:16;3.90;99.90
29731;DHT22;16639;51.488;0.152;2024-01-15T14:27:43;3.40;99.90
29731;DHT22;16639;51.488;0.152;2024-01-15T14:30:11;3.40;99.90
29731;DHT22;16639;51.488;0.152;2024-01-15T14:32:40;3.40;99.90
29731;DHT22;16639;51.488;0.152;2024-01-15T14:35:08;2.60;99.90
29731;DHT22;16639;51.488;0.152;2024-01-15T14:37:38;3.40;99.90
29731;DHT22;16639;51.488;0.152;2024-01-15T14:40:09;3.40;99.90
29731;DHT22;16639;51.488;0.152;2024-01-15T14:42:37;3.40;99.90
29731;DHT22;16639;51.488;0.152;2024-01-15T14:45:05;3.40;99.90
29731;DHT22;16639;51.488;0.152;2024-01-15T14:47:39;3.30;99.90
29731;DHT22;16639;51.488;0.152;2024-01-15T14:50:08;3.40;99.90
29731;DHT22;16639;51.488;0.152;2024-01-15T14:52:37;3.40;99.90
29731;DHT22;16639;51.488;0.152;2024-01-15T14:55:04;3.40;99.90
29731;DHT22;16639;51.488;0.152;2024-01-15T14:57:32;3.40;99.90
29731;DHT22;16639;51.488;0.152;2024-01-15T15:00:00;3.40;99.90
29731;DHT22;16639;51.488;0.152;2024-01-15T15:02:27;3.40;99.90
29731;DHT22;16639;51.488;0.152;2024-01-15T15:04:58;3.50;99.90
29731;DHT22;16639;51.488;0.152;2024-01-15T15:07:25;3.50;99.90
29731;DHT22;16639;51.488;0.152;2024-01-15T15:09:53;4.40;99.90
29731;DHT22;16639;51.488;0.152;2024-01-15T15:12:26;3.50;99.90
29731;DHT22;16639;51.488;0.152;2024-01-15T15:14:54;3.40;99.90
29731;DHT22;16639;51.488;0.152;2024-01-15T15:17:34;3.50;99.90
29731;DHT22;16639;51.488;0.152;2024-01-15T15:20:02;3.50;99.90
29731;DHT22;16639;51.488;0.152;2024-01-15T15:22:30;3.40;99.90
29731;DHT22;16639;51.488;0.152;2024-01-15T15:24:57;3.40;99.90
29731;DHT22;16639;51.488;0.152;2024-01-15T15:27:25;3.40;99.90
29731;DHT22;16639;51.488;0.152;2024-01-15T15:29:56;3.40;99.90
29731;DHT22;16639;51.488;0.152;2024-01-15T15:32:23;3.30;99.90
29731;DHT22;16639;51.488;0.152;2024-01-15T15:34:51;3.40;99.90
29731;DHT22;16639;51.488;0.152;2024-01-15T15:37:19;3.40;99.90
29731;DHT22;16639;51.488;0.152;2024-01-15T15:39:50;3.30;99.90
29731;DHT22;16639;51.488;0.152;2024-01-15T15:42:17;3.30;99.90
29731;DHT22;16639;51.488;0.152;2024-01-15T15:44:45;3.30;99.90
29731;DHT22;16639;51.488;0.152;2024-01-15T15:47:13;3.30;99.90
29731;DHT22;16639;51.488;0.152;2024-01-15T15:49:42;3.30;99.90
29731;DHT22;16639;51.488;0.152;2024-01-15T15:52:10;3.20;99.90
29731;DHT22;16639;51.488;0.152;2024-01-15T15:54:38;3.20;99.90
29731;DHT22;16639;51.488;0.152;2024-01-15T15:57:05;3.10;99.90
29731;DHT22;16639;51.488;0.152;2024-01-15T15:59:32;3.20;99.90
29731;DHT22;16639;51.488;0.152;2024-01-15T16:02:00;3.20;99.90
29731;DHT22;16639;51.488;0.152;2024-01-15T16:04:27;3.20;99.90